Time;durP1;ratioP1;P1;durP2;ratioP2;P2;SDS_P1;SDS_P2;PMS_P1;PMS_P2;Temp;Humidity;BMP_temperature;BMP_pressure;BME280_temperature;BME280_humidity;BME280_pressure;Samples;Min_cycle;Max_cycle;Signal;HPM_P1;HPM_P2
2022/11/27 08:02:00;;;;;;;7.43;6.50;;;;;;;5.76;100.00;102063.16;5274984;27;20143;-67
2022/11/27 08:04:30;;;;;;;14.82;6.85;;;;;;;5.40;100.00;102011.56;5220943;28;20049;-69
2022/11/27 08:07:01;;;;;;;7.25;6.85;;;;;;;5.75;100.00;102064.19;5238132;28;20029;-67
2022/11/27 08:09:31;;;;;;;8.45;7.65;;;;;;;5.73;100.00;102060.03;5238488;28;20037;-67
2022/11/27 08:12:03;;;;;;;7.22;6.75;;;;;;;5.74;100.00;102067.06;5222622;28;20039;-67
2022/11/27 08:14:33;;;;;;;7.03;6.63;;;;;;;5.75;100.00;102066.03;5221706;28;20405;-68
2022/11/27 08:17:03;;;;;;;9.35;8.60;;;;;;;5.75;100.00;102060.69;5238443;28;20023;-67
2022/11/27 08:19:34;;;;;;;9.40;8.63;;;;;;;5.75;100.00;102066.03;5221980;28;20025;-67
2022/11/27 08:22:05;;;;;;;15.40;14.30;;;;;;;5.62;100.00;102039.97;5221227;28;20051;-69
2022/11/27 08:24:37;;;;;;;14.93;7.70;;;;;;;5.76;100.00;102065.03;5238257;28;20022;-65
2022/11/27 08:27:08;;;;;;;7.68;7.18;;;;;;;5.78;100.00;102065.63;5218772;28;20086;-67
2022/11/27 08:29:39;;;;;;;8.65;7.78;;;;;;;5.77;100.00;102058.63;5220921;28;20212;-66
2022/11/27 08:32:09;;;;;;;6.35;5.95;;;;;;;5.63;100.00;102035.44;5222769;28;20416;-68
2022/11/27 08:34:40;;;;;;;9.43;7.05;;;;;;;5.76;100.00;102051.63;5238031;28;20025;-66
2022/11/27 08:37:10;;;;;;;15.70;7.72;;;;;;;5.83;100.00;102044.44;5222116;28;20072;-67
2022/11/27 08:39:41;;;;;;;7.93;6.65;;;;;;;5.83;100.00;102047.09;5220670;28;20040;-66
2022/11/27 08:42:11;;;;;;;9.95;8.07;;;;;;;5.87;100.00;102052.91;5237823;28;20029;-67
2022/11/27 08:44:42;;;;;;;8.27;7.38;;;;;;;5.85;100.00;102041.56;5237802;28;20033;-67
2022/11/27 08:47:14;;;;;;;7.03;6.63;;;;;;;5.90;100.00;102044.50;5237423;28;20025;-66
2022/11/27 08:49:44;;;;;;;8.65;6.32;;;;;;;5.90;100.00;102039.97;5229636;28;20492;-67
2022/11/27 08:52:15;;;;;;;7.50;5.93;;;;;;;5.92;100.00;102031.75;5236570;28;20024;-68
2022/11/27 08:54:46;;;;;;;7.03;6.55;;;;;;;5.99;100.00;102029.94;5219739;28;20060;-67
2022/11/27 08:57:16;;;;;;;7.65;7.00;;;;;;;6.00;100.00;102029.75;5220534;28;20021;-67
2022/11/27 09:00:18;;;;;;;8.35;7.75;;;;;;;6.00;100.00;102034.28;5200400;28;20041;-67
2022/11/27 09:02:48;;;;;;;11.07;7.53;;;;;;;5.99;100.00;102020.03;5200581;28;20084;-67
2022/11/27 09:05:19;;;;;;;9.80;8.23;;;;;;;6.05;100.00;102030.00;5200466;28;20037;-67
2022/11/27 09:07:50;;;;;;;8.15;7.38;;;;;;;6.06;100.00;102026.25;5217323;28;20021;-67
2022/11/27 09:10:21;;;;;;;7.20;6.50;;;;;;;6.09;100.00;102033.91;5199855;28;20056;-67
2022/11/27 09:12:52;;;;;;;6.45;6.10;;;;;;;6.12;100.00;102026.50;5189462;28;20512;-67
2022/11/27 09:15:22;;;;;;;6.68;5.88;;;;;;;6.14;100.00;102027.94;5186702;28;20034;-66
2022/11/27 09:17:53;;;;;;;11.45;6.50;;;;;;;6.18;100.00;102026.53;5185781;28;20447;-69
2022/11/27 09:20:23;;;;;;;6.28;5.82;;;;;;;6.19;100.00;102025.50;5185553;28;20446;-67
2022/11/27 09:22:54;;;;;;;7.95;6.35;;;;;;;6.25;100.00;102024.72;5186409;28;20071;-67
2022/11/27 09:25:24;;;;;;;6.28;5.88;;;;;;;6.19;100.00;102019.31;5186229;28;20033;-67
2022/11/27 09:27:55;;;;;;;7.07;6.03;;;;;;;6.27;100.00;102028.03;5186469;28;20033;-66
2022/11/27 09:30:25;;;;;;;7.90;7.30;;;;;;;6.27;100.00;102028.03;5185412;28;20018;-67
2022/11/27 09:32:56;;;;;;;7.82;7.03;;;;;;;6.26;100.00;102029.06;5185983;28;20032;-67
2022/11/27 09:35:26;;;;;;;7.72;6.57;;;;;;;6.30;100.00;102026.81;5185872;28;20034;-67
2022/11/27 09:37:56;;;;;;;6.63;5.97;;;;;;;6.27;100.00;102008.44;5186046;28;20520;-66
2022/11/27 09:40:27;;;;;;;6.72;6.03;;;;;;;6.33;100.00;102010.31;5185140;28;20018;-66
2022/11/27 09:43:38;;;;;;;6.38;5.80;;;;;;;6.36;100.00;102012.56;5185987;28;20045;-66
2022/11/27 09:46:16;;;;;;;7.63;6.93;;;;;;;6.36;100.00;102007.22;5185795;28;20030;-67
2022/11/27 09:48:49;;;;;;;7.07;6.63;;;;;;;6.38;100.00;102007.84;5185448;28;20043;-71
2022/11/27 09:51:36;;;;;;;6.63;6.03;;;;;;;6.39;100.00;102010.31;5185086;28;20080;-67
2022/11/27 09:54:06;;;;;;;6.95;6.45;;;;;;;6.44;100.00;102001.69;5186101;28;20129;-68
2022/11/27 09:56:38;;;;;;;8.65;7.03;;;;;;;6.43;100.00;102000.03;5185612;28;20124;-67
2022/11/27 09:59:16;;;;;;;12.15;7.50;;;;;;;6.44;100.00;102001.69;5185170;28;20410;-69
2022/11/27 10:01:46;;;;;;;6.47;6.07;;;;;;;6.47;100.00;101995.09;5184913;28;20026;-67
2022/11/27 10:04:19;;;;;;;6.80;6.15;;;;;;;6.48;100.00;101997.56;5185479;28;20113;-67
2022/11/27 10:06:56;;;;;;;7.00;6.60;;;;;;;6.53;100.00;101987.06;5185376;28;20034;-67
2022/11/27 10:10:04;;;;;;;7.43;6.93;;;;;;;6.52;100.00;101982.72;5184556;28;20060;-67
2022/11/27 10:13:12;;;;;;;7.35;6.57;;;;;;;6.56;100.00;101989.34;5185248;28;20038;-67
2022/11/27 10:16:00;;;;;;;7.72;7.03;;;;;;;6.60;100.00;101974.50;5184813;28;20038;-68
2022/11/27 10:18:42;;;;;;;7.20;6.80;;;;;;;6.66;100.00;101968.28;5185013;28;20030;-66
2022/11/27 10:22:03;;;;;;;7.05;6.38;;;;;;;6.64;100.00;101954.25;5204085;28;20374;-68
2022/11/27 10:24:44;;;;;;;6.43;6.03;;;;;;;6.66;100.00;101956.72;5186593;28;20037;-66
2022/11/27 10:27:28;;;;;;;7.38;6.85;;;;;;;6.61;100.00;101943.94;5205363;28;20033;-66
2022/11/27 10:30:02;;;;;;;7.47;6.97;;;;;;;6.70;100.00;101950.75;5205697;28;20030;-68
2022/11/27 10:32:34;;;;;;;8.70;7.38;;;;;;;6.76;100.00;101949.13;5221121;28;20385;-65
2022/11/27 10:35:13;;;;;;;7.47;6.70;;;;;;;6.80;100.00;101953.06;5221570;28;20032;-66
2022/11/27 10:37:59;;;;;;;7.60;7.18;;;;;;;6.82;100.00;101942.13;5221789;28;20040;-66
2022/11/27 10:40:38;;;;;;;7.32;6.85;;;;;;;6.83;100.00;101939.22;5220780;28;20032;-67
2022/11/27 10:43:20;;;;;;;8.07;7.40;;;;;;;6.88;100.00;101939.44;5205291;28;20075;-67
2022/11/27 10:46:00;;;;;;;7.50;6.70;;;;;;;6.82;100.00;101934.06;5205396;28;20036;-67
2022/11/27 10:48:33;;;;;;;;;;;;;;;6.88;100.00;101930.56;5222422;28;20031;-67
2022/11/27 10:51:37;;;;;;;7.40;6.80;;;;;;;6.96;100.00;101923.09;5221262;28;20298;-67
2022/11/27 10:54:25;;;;;;;7.70;7.00;;;;;;;7.05;100.00;101923.75;5204557;28;20029;-67
2022/11/27 10:57:38;;;;;;;8.13;7.55;;;;;;;7.09;100.00;101906.19;5221869;28;20021;-68
2022/11/27 11:00:19;;;;;;;7.57;6.90;;;;;;;7.15;100.00;101897.31;5203432;28;20044;-68
2022/11/27 11:03:19;;;;;;;9.77;7.40;;;;;;;7.16;100.00;101890.91;5205027;28;20125;-70
2022/11/27 11:05:59;;;;;;;9.25;8.45;;;;;;;7.21;100.00;101885.72;5205656;28;20037;-69
2022/11/27 11:08:32;;;;;;;10.77;7.68;;;;;;;7.24;100.00;101876.41;5221694;28;20478;-65
2022/11/27 11:11:05;;;;;;;8.32;6.80;;;;;;;7.36;100.00;101883.63;5203656;28;20021;-67
2022/11/27 11:13:39;;;;;;;7.20;6.28;;;;;;;7.48;100.00;101880.31;5184202;28;20030;-67
2022/11/27 11:16:12;;;;;;;8.18;7.55;;;;;;;7.50;100.00;101878.22;5184273;28;20026;-67
2022/11/27 11:18:45;;;;;;;8.68;7.88;;;;;;;7.52;100.00;101868.06;5184254;28;20030;-67
2022/11/27 11:21:34;;;;;;;6.78;6.38;;;;;;;7.54;100.00;101858.75;5183474;28;20022;-67
2022/11/27 11:24:06;;;;;;;8.13;7.35;;;;;;;7.51;100.00;101845.75;5184413;28;20045;-69
2022/11/27 11:26:43;;;;;;;8.25;7.50;;;;;;;7.66;100.00;101862.47;5184326;28;20324;-68
2022/11/27 11:29:30;;;;;;;16.35;7.25;;;;;;;7.64;100.00;101859.16;5192834;28;20036;-68
2022/11/27 11:32:11;;;;;;;8.05;7.50;;;;;;;7.69;100.00;101853.16;5220091;28;20024;-69
2022/11/27 11:34:45;;;;;;;13.75;7.90;;;;;;;7.73;100.00;101849.81;5220655;28;20033;-69
2022/11/27 11:37:26;;;;;;;7.47;6.93;;;;;;;7.74;100.00;101831.81;5204028;28;20493;-67
2022/11/27 11:40:07;;;;;;;9.82;9.05;;;;;;;7.74;100.00;101827.28;5220171;28;20035;-69
2022/11/27 11:42:51;;;;;;;12.75;6.93;;;;;;;7.81;100.00;101813.78;5203892;28;20029;-69
2022/11/27 11:45:22;;;;;;;8.32;7.47;;;;;;;7.74;100.00;101796.88;5203898;28;20051;-72
2022/11/27 11:47:55;;;;;;;8.52;7.93;;;;;;;7.72;100.00;101799.78;5220805;28;20029;-69
2022/11/27 11:50:35;;;;;;;7.35;6.95;;;;;;;7.76;100.00;101798.31;5220114;28;20029;-69
2022/11/27 11:53:17;;;;;;;;;;;;;;;7.84;100.00;101788.31;5205347;28;20025;-71
2022/11/27 11:56:16;;;;;;;9.65;8.65;;;;;;;7.78;100.00;101788.16;5220647;28;19920;-68
2022/11/27 11:59:34;;;;;;;7.95;7.20;;;;;;;7.76;100.00;101809.06;5202412;28;20045;-71
2022/11/27 12:02:29;;;;;;;9.27;8.55;;;;;;;7.74;100.00;101799.56;5185564;28;20026;-70
2022/11/27 12:05:37;;;;;;;8.70;7.93;;;;;;;7.73;100.00;101787.16;5201816;28;20033;-70
2022/11/27 12:08:19;;;;;;;9.38;8.20;;;;;;;7.70;100.00;101772.28;5218483;28;20543;-68
2022/11/27 12:11:05;;;;;;;9.27;8.27;;;;;;;7.57;100.00;101776.88;5220008;28;20025;-71
2022/11/27 12:14:05;;;;;;;9.20;8.27;;;;;;;7.58;100.00;101765.09;5203697;28;20083;-67
2022/11/27 12:16:35;;;;;;;10.45;9.50;;;;;;;7.63;100.00;101770.66;5204980;28;20497;-69
2022/11/27 12:19:30;;;;;;;9.70;8.80;;;;;;;7.58;100.00;101767.78;5220340;28;20025;-68
2022/11/27 12:22:08;;;;;;;8.95;8.25;;;;;;;7.58;100.00;101763.22;5219952;28;20037;-70
2022/11/27 12:25:06;;;;;;;12.18;8.88;;;;;;;7.53;100.00;101757.66;5219912;28;20033;-68
2022/11/27 12:27:40;;;;;;;8.50;7.75;;;;;;;7.43;100.00;101754.63;5220226;28;20033;-70
2022/11/27 12:30:16;;;;;;;10.25;9.38;;;;;;;7.41;100.00;101744.09;5220054;28;20033;-68
2022/11/27 12:33:08;;;;;;;7.35;6.65;;;;;;;7.41;100.00;101752.16;5203345;28;20033;-68
2022/11/27 12:35:49;;;;;;;9.07;7.97;;;;;;;7.38;100.00;101735.63;5234081;22;20519;-66
2022/11/27 12:38:58;;;;;;;15.18;8.73;;;;;;;7.30;100.00;101730.47;5219276;28;20017;-67
2022/11/27 12:42:00;;;;;;;8.80;8.20;;;;;;;7.30;100.00;101735.84;5166755;28;20160;-66
2022/11/27 12:44:54;;;;;;;10.15;9.10;;;;;;;7.28;100.00;101717.25;5186814;28;20040;-68
2022/11/27 12:47:33;;;;;;;9.40;8.52;;;;;;;7.30;100.00;101723.25;5185271;28;20378;-66
2022/11/27 12:50:30;;;;;;;9.85;9.00;;;;;;;7.19;100.00;101704.31;5202145;28;20022;-67
2022/11/27 12:53:39;;;;;;;8.32;7.53;;;;;;;7.31;100.00;101718.69;5182056;28;20038;-66
2022/11/27 12:56:39;;;;;;;10.25;9.38;;;;;;;7.30;100.00;101709.81;5183086;28;20128;-66
2022/11/27 12:59:24;;;;;;;8.75;7.95;;;;;;;7.29;100.00;101699.28;5196719;28;20476;-67
2022/11/27 13:02:26;;;;;;;14.30;8.82;;;;;;;7.26;100.00;101705.91;5201565;28;20030;-67
2022/11/27 13:05:02;;;;;;;7.80;7.28;;;;;;;7.26;100.00;101703.22;5202117;28;20037;-66
2022/11/27 13:07:38;;;;;;;8.32;7.72;;;;;;;7.24;100.00;101696.41;5185948;28;20428;-67
2022/11/27 13:10:34;;;;;;;8.32;7.82;;;;;;;7.25;100.00;101701.56;5201720;28;20109;-66
2022/11/27 13:13:22;;;;;;;11.68;7.70;;;;;;;7.22;100.00;101685.88;5186420;28;20105;-65
2022/11/27 13:16:17;;;;;;;9.75;8.85;;;;;;;7.21;100.00;101686.13;5185504;28;20030;-66
2022/11/27 13:19:03;;;;;;;8.65;7.95;;;;;;;7.24;100.00;101696.41;5201950;28;20417;-67
2022/11/27 13:21:35;;;;;;;9.73;9.07;;;;;;;7.16;100.00;101684.06;5184570;28;20034;-65
2022/11/27 13:24:10;;;;;;;8.25;7.50;;;;;;;7.23;100.00;101687.53;5185168;28;20033;-66
2022/11/27 13:27:08;;;;;;;7.63;7.18;;;;;;;7.24;100.00;101686.47;5185371;28;20032;-67
2022/11/27 13:29:47;;;;;;;9.98;9.05;;;;;;;7.27;100.00;101674.50;5201770;28;20116;-66
2022/11/27 13:32:24;;;;;;;8.95;7.82;;;;;;;7.25;100.00;101666.63;5200798;28;20030;-65
2022/11/27 13:35:02;;;;;;;10.98;9.70;;;;;;;7.20;100.00;101663.81;5185017;28;20053;-67
2022/11/27 13:37:38;;;;;;;9.38;8.77;;;;;;;7.19;100.00;101656.78;5185348;28;20029;-67
2022/11/27 13:40:22;;;;;;;8.35;7.65;;;;;;;7.17;100.00;101648.09;5184784;28;20121;-67
2022/11/27 13:42:55;;;;;;;10.13;9.20;;;;;;;7.21;100.00;101653.88;5185961;28;20034;-67
2022/11/27 13:45:29;;;;;;;8.98;8.27;;;;;;;7.20;100.00;101646.84;5184936;28;20021;-67
2022/11/27 13:48:04;;;;;;;10.07;9.00;;;;;;;7.17;100.00;101650.78;5185526;28;20112;-66
2022/11/27 13:50:43;;;;;;;10.32;9.60;;;;;;;7.17;100.00;101656.16;5184833;28;20018;-66
2022/11/27 13:53:13;;;;;;;9.35;8.55;;;;;;;7.16;100.00;101649.16;5184115;28;20465;-66
2022/11/27 13:55:55;;;;;;;10.55;9.02;;;;;;;7.16;100.00;101646.47;5184792;28;20065;-66
2022/11/27 13:58:41;;;;;;;8.80;8.00;;;;;;;7.14;100.00;101651.22;5184641;28;20117;-66
2022/11/27 14:01:18;;;;;;;9.98;9.18;;;;;;;7.14;100.00;101647.72;5184111;28;20026;-67
2022/11/27 14:03:49;;;;;;;8.98;8.20;;;;;;;7.15;100.00;101636.75;5184500;28;20032;-68
2022/11/27 14:06:26;;;;;;;7.30;6.70;;;;;;;7.16;100.00;101640.25;5184579;28;20029;-66
2022/11/27 14:09:00;;;;;;;10.93;9.88;;;;;;;7.16;100.00;101638.41;5185996;28;20037;-65
2022/11/27 14:11:35;;;;;;;9.10;8.35;;;;;;;7.16;100.00;101640.25;5183881;28;20018;-68
2022/11/27 14:14:19;;;;;;;9.15;8.38;;;;;;;7.13;100.00;101630.78;5200795;28;20482;-66
2022/11/27 14:17:03;;;;;;;11.05;10.13;;;;;;;7.07;100.00;101628.94;5184606;28;20025;-67
2022/11/27 14:19:42;;;;;;;9.52;8.57;;;;;;;7.07;100.00;101626.25;5184092;28;20116;-65
2022/11/27 14:22:33;;;;;;;8.88;8.00;;;;;;;7.01;100.00;101611.81;5183463;28;20044;-67
2022/11/27 14:25:17;;;;;;;10.27;9.57;;;;;;;7.00;100.00;101607.47;5184584;28;20517;-68
2022/11/27 14:28:26;;;;;;;11.25;8.70;;;;;;;6.99;100.00;101613.06;5184443;28;20091;-69
2022/11/27 14:31:01;;;;;;;9.15;8.27;;;;;;;6.96;100.00;101600.88;5183325;28;20442;-67
2022/11/27 14:33:33;;;;;;;10.23;9.15;;;;;;;6.91;100.00;101594.53;5200262;28;20072;-69
2022/11/27 14:36:06;;;;;;;9.90;9.20;;;;;;;6.87;100.00;101594.13;5184038;28;20548;-67
2022/11/27 14:38:36;;;;;;;9.48;8.70;;;;;;;6.85;100.00;101592.69;5185535;28;20022;-67
2022/11/27 14:41:18;;;;;;;8.88;8.27;;;;;;;6.81;100.00;101597.66;5184513;28;20084;-69
2022/11/27 14:44:04;;;;;;;9.40;8.77;;;;;;;6.80;100.00;101576.41;5183724;28;20026;-68
2022/11/27 14:46:36;;;;;;;7.82;7.22;;;;;;;6.77;100.00;101578.47;5184019;28;20084;-68
2022/11/27 14:49:17;;;;;;;9.52;8.73;;;;;;;6.75;100.00;101577.84;5185140;28;20124;-68
2022/11/27 14:51:50;;;;;;;9.65;8.90;;;;;;;6.72;100.00;101570.22;5199811;28;20069;-67
2022/11/27 14:54:47;;;;;;;8.20;7.70;;;;;;;6.71;100.00;101573.94;5183387;28;20049;-69
2022/11/27 14:57:25;;;;;;;10.95;10.15;;;;;;;6.63;100.00;101560.78;5182945;28;20042;-67
2022/11/27 15:00:03;;;;;;;8.40;7.70;;;;;;;6.69;100.00;101559.91;5183176;28;20056;-69
2022/11/27 15:02:34;;;;;;;9.23;7.95;;;;;;;6.64;100.00;101551.66;5183352;28;20457;-66
2022/11/27 15:05:05;;;;;;;7.90;7.40;;;;;;;6.66;100.00;101559.50;5199739;28;20026;-67
2022/11/27 15:07:36;;;;;;;9.50;8.68;;;;;;;6.59;100.00;101548.81;5200077;28;20026;-67
2022/11/27 15:10:20;;;;;;;11.20;10.25;;;;;;;6.62;100.00;101545.72;5188248;28;20504;-67
2022/11/27 15:12:50;;;;;;;10.23;9.23;;;;;;;6.58;100.00;101539.13;5220277;28;20032;-67
2022/11/27 15:15:25;;;;;;;10.68;8.88;;;;;;;6.53;100.00;101535.44;5199789;28;20026;-67
2022/11/27 15:17:59;;;;;;;9.15;8.40;;;;;;;6.54;100.00;101539.75;5215495;28;20061;-69
2022/11/27 15:20:40;;;;;;;9.13;8.40;;;;;;;6.53;100.00;101532.75;5199568;28;20025;-69
2022/11/27 15:23:25;;;;;;;10.27;9.45;;;;;;;6.51;100.00;101537.50;5199738;28;20552;-72
2022/11/27 15:25:58;;;;;;;9.88;9.27;;;;;;;6.49;100.00;101536.88;5200197;28;20025;-68
2022/11/27 15:28:33;;;;;;;10.15;9.45;;;;;;;6.47;100.00;101526.38;5184506;28;20459;-66
2022/11/27 15:31:22;;;;;;;11.05;10.15;;;;;;;6.47;100.00;101528.22;5199358;28;20581;-67
2022/11/27 15:33:58;;;;;;;11.77;9.93;;;;;;;6.47;100.00;101526.38;5199826;28;20072;-68
2022/11/27 15:36:36;;;;;;;9.40;8.63;;;;;;;6.45;100.00;101520.38;5200067;28;20269;-68
2022/11/27 15:39:15;;;;;;;10.70;9.65;;;;;;;6.37;100.00;101510.72;5183681;28;20025;-69
2022/11/27 15:41:57;;;;;;;10.90;9.80;;;;;;;6.41;100.00;101508.44;5199421;28;20034;-68
2022/11/27 15:44:30;;;;;;;10.95;10.05;;;;;;;6.39;100.00;101500.59;5199795;28;20041;-68
2022/11/27 15:47:02;;;;;;;9.25;8.48;;;;;;;6.39;100.00;101497.09;5184734;28;20032;-67
2022/11/27 15:49:32;;;;;;;9.65;8.85;;;;;;;6.35;100.00;101485.94;5182937;28;20068;-67
2022/11/27 15:52:03;;;;;;;11.73;10.68;;;;;;;6.35;100.00;101490.53;5199074;28;20057;-67
2022/11/27 15:54:33;;;;;;;11.63;10.95;;;;;;;6.38;100.00;101492.75;5185142;28;20114;-69
2022/11/27 15:57:04;;;;;;;10.82;9.85;;;;;;;6.37;100.00;101488.44;5189022;28;20026;-68
2022/11/27 15:59:34;;;;;;;12.23;8.75;;;;;;;6.37;100.00;101491.09;5199410;28;20026;-68
2022/11/27 16:02:05;;;;;;;11.90;11.00;;;;;;;6.35;100.00;101487.84;5182035;28;20026;-67
2022/11/27 16:04:36;;;;;;;10.05;8.63;;;;;;;6.36;100.00;101487.59;5182940;28;20032;-69
2022/11/27 16:07:07;;;;;;;9.77;8.93;;;;;;;6.36;100.00;101484.09;5199700;28;20033;-68
2022/11/27 16:09:38;;;;;;;13.27;9.07;;;;;;;6.37;100.00;101475.84;5199414;28;20080;-68
2022/11/27 16:12:09;;;;;;;10.82;10.02;;;;;;;6.38;100.00;101482.03;5198917;28;20028;-69
2022/11/27 16:14:39;;;;;;;9.52;8.82;;;;;;;6.25;100.00;101456.09;5182888;28;20549;-71
2022/11/27 16:17:10;;;;;;;10.57;9.68;;;;;;;6.36;100.00;101458.09;5199591;28;20018;-67
2022/11/27 16:19:41;;;;;;;9.80;9.15;;;;;;;6.37;100.00;101462.41;5183617;28;20036;-71
2022/11/27 16:22:11;;;;;;;8.85;8.05;;;;;;;6.37;100.00;101458.91;5200298;28;20490;-68
2022/11/27 16:24:42;;;;;;;10.95;9.88;;;;;;;6.36;100.00;101460.78;5186650;28;20053;-68
2022/11/27 16:27:12;;;;;;;10.90;9.90;;;;;;;6.23;100.00;101427.84;5203347;28;20117;-69
2022/11/27 16:29:43;;;;;;;9.23;8.43;;;;;;;6.35;100.00;101448.41;5187235;28;20088;-71
2022/11/27 16:32:14;;;;;;;13.73;10.32;;;;;;;6.35;100.00;101442.25;5186626;28;20072;-70
2022/11/27 16:34:44;;;;;;;10.75;9.85;;;;;;;6.34;100.00;101433.38;5186390;28;20054;-68
2022/11/27 16:37:15;;;;;;;11.25;10.15;;;;;;;6.32;100.00;101438.13;5186345;28;20022;-68
2022/11/27 16:39:45;;;;;;;9.65;8.95;;;;;;;6.32;100.00;101429.25;5185859;28;20359;-68
2022/11/27 16:42:16;;;;;;;10.35;9.05;;;;;;;6.31;100.00;101430.28;5186023;28;20072;-68
2022/11/27 16:44:46;;;;;;;15.70;10.70;;;;;;;6.25;100.00;101425.78;5187417;28;20018;-69
2022/11/27 16:47:17;;;;;;;11.10;10.15;;;;;;;6.25;100.00;101423.09;5186338;28;20033;-69
2022/11/27 16:49:47;;;;;;;11.18;10.00;;;;;;;6.23;100.00;101417.13;5186045;28;20033;-69
2022/11/27 16:52:18;;;;;;;11.02;9.27;;;;;;;6.23;100.00;101419.78;5185531;28;20053;-68
2022/11/27 16:54:48;;;;;;;9.85;9.02;;;;;;;6.23;100.00;101422.47;5186313;28;20029;-68
2022/11/27 16:57:19;;;;;;;10.75;9.77;;;;;;;6.22;100.00;101418.16;5186154;28;20092;-69
2022/11/27 16:59:49;;;;;;;11.45;10.40;;;;;;;6.18;100.00;101414.25;5185884;28;20096;-68
2022/11/27 17:02:20;;;;;;;10.32;9.63;;;;;;;6.13;100.00;101398.78;5186055;28;20402;-67
2022/11/27 17:04:50;;;;;;;12.55;9.93;;;;;;;6.20;100.00;101404.13;5185390;28;20065;-67
2022/11/27 17:07:21;;;;;;;13.05;10.63;;;;;;;6.15;100.00;101396.72;5202268;28;20030;-68
2022/11/27 17:09:51;;;;;;;8.90;8.30;;;;;;;6.17;100.00;101400.00;5185657;28;20215;-68
2022/11/27 17:12:22;;;;;;;10.25;9.55;;;;;;;6.13;100.00;101392.59;5186843;28;20022;-67
2022/11/27 17:14:52;;;;;;;9.48;8.77;;;;;;;6.14;100.00;101391.56;5185429;28;20025;-68
2022/11/27 17:17:22;;;;;;;11.45;10.35;;;;;;;6.13;100.00;101387.25;5185338;28;20029;-67
2022/11/27 17:19:58;;;;;;;10.23;9.48;;;;;;;6.09;100.00;101379.63;5185218;28;20026;-68
2022/11/27 17:22:29;;;;;;;9.73;9.00;;;;;;;6.08;100.00;101372.63;5185216;28;20028;-67
2022/11/27 17:25:00;;;;;;;12.02;10.90;;;;;;;6.09;100.00;101376.94;5185618;28;20026;-67
2022/11/27 17:27:31;;;;;;;14.73;10.48;;;;;;;6.07;100.00;101373.66;5185191;28;20026;-68
2022/11/27 17:30:02;;;;;;;10.30;9.55;;;;;;;6.06;100.00;101363.16;5185261;28;20026;-67
2022/11/27 17:32:32;;;;;;;11.60;10.60;;;;;;;6.06;100.00;101366.63;5186199;28;20018;-67
2022/11/27 17:35:03;;;;;;;11.90;9.85;;;;;;;6.04;100.00;101363.38;5185286;28;20068;-68
2022/11/27 17:37:33;;;;;;;13.25;10.18;;;;;;;6.02;100.00;101357.41;5185244;28;20022;-67
2022/11/27 17:40:05;;;;;;;10.30;9.50;;;;;;;6.00;100.00;101354.13;5184739;28;20022;-68
2022/11/27 17:42:35;;;;;;;10.82;9.93;;;;;;;5.99;100.00;101349.78;5185321;28;20029;-68
2022/11/27 17:45:06;;;;;;;10.10;9.27;;;;;;;6.01;100.00;101346.91;5185276;28;20152;-68
2022/11/27 17:47:37;;;;;;;10.23;9.52;;;;;;;5.99;100.00;101343.59;5182989;28;20041;-68
2022/11/27 17:50:08;;;;;;;15.07;10.90;;;;;;;6.00;100.00;101346.06;5184837;28;20391;-67
2022/11/27 17:52:38;;;;;;;12.30;9.68;;;;;;;5.98;100.00;101345.47;5184758;28;20033;-67
2022/11/27 17:55:09;;;;;;;11.52;10.50;;;;;;;5.98;100.00;101342.78;5184989;28;20485;-67
2022/11/27 17:57:39;;;;;;;11.23;10.07;;;;;;;5.97;100.00;101335.78;5184886;28;20022;-67
2022/11/27 18:00:11;;;;;;;10.13;9.13;;;;;;;5.97;100.00;101338.44;5184452;28;20355;-69
2022/11/27 18:02:42;;;;;;;10.70;9.82;;;;;;;5.96;100.00;101334.13;5184952;28;20034;-67
2022/11/27 18:05:12;;;;;;;12.23;10.90;;;;;;;5.93;100.00;101325.69;5182507;28;20076;-68
2022/11/27 18:07:42;;;;;;;11.13;10.32;;;;;;;5.92;100.00;101326.72;5199648;28;20449;-68
2022/11/27 18:10:18;;;;;;;12.23;11.13;;;;;;;5.91;100.00;101320.53;5200724;28;20068;-67
2022/11/27 18:12:48;;;;;;;11.50;10.60;;;;;;;5.89;100.00;101309.22;5184214;28;20033;-67
2022/11/27 18:15:19;;;;;;;11.85;10.90;;;;;;;5.90;100.00;101302.00;5185770;28;20018;-67
2022/11/27 18:17:49;;;;;;;12.15;10.95;;;;;;;5.89;100.00;101300.34;5185289;28;20037;-68
2022/11/27 18:20:20;;;;;;;13.80;12.60;;;;;;;5.87;100.00;101295.16;5183776;28;20536;-68
2022/11/27 18:22:50;;;;;;;13.65;10.88;;;;;;;5.89;100.00;101300.34;5183969;28;20036;-68
2022/11/27 18:25:21;;;;;;;10.40;9.70;;;;;;;5.88;100.00;101288.75;5200730;28;20033;-67
2022/11/27 18:27:51;;;;;;;9.85;9.25;;;;;;;5.88;100.00;101285.25;5184009;28;20037;-67
2022/11/27 18:30:22;;;;;;;11.65;10.50;;;;;;;5.88;100.00;101291.44;5183542;28;20156;-68
2022/11/27 18:32:52;;;;;;;11.90;10.75;;;;;;;5.66;100.00;101258.78;5185658;28;20040;-68
2022/11/27 18:35:23;;;;;;;13.05;11.95;;;;;;;5.88;100.00;101294.13;5186048;28;20026;-68
2022/11/27 18:37:53;;;;;;;12.32;11.10;;;;;;;5.81;100.00;101287.97;5227684;22;20048;-67
2022/11/27 18:40:24;;;;;;;12.35;11.27;;;;;;;5.70;100.00;101270.72;5203055;28;20316;-68
2022/11/27 18:42:54;;;;;;;12.57;11.57;;;;;;;5.86;100.00;101296.19;5220039;28;20473;-68
2022/11/27 18:45:25;;;;;;;10.88;10.07;;;;;;;5.88;100.00;101295.97;5202029;28;20434;-68
2022/11/27 18:47:55;;;;;;;11.75;10.75;;;;;;;5.87;100.00;101300.53;5203717;28;20025;-68
2022/11/27 18:50:26;;;;;;;11.48;10.75;;;;;;;5.89;100.00;101295.81;5219870;28;20021;-68
2022/11/27 18:52:56;;;;;;;12.18;11.40;;;;;;;5.88;100.00;101296.81;5220406;28;20026;-67
2022/11/27 18:55:27;;;;;;;13.50;12.27;;;;;;;5.87;100.00;101297.84;5221306;28;20022;-68
2022/11/27 18:57:57;;;;;;;13.02;11.77;;;;;;;5.79;100.00;101279.31;5204589;28;20112;-68
2022/11/27 19:00:27;;;;;;;12.13;10.98;;;;;;;5.87;100.00;101291.66;5203829;28;20025;-68
2022/11/27 19:02:58;;;;;;;12.15;11.07;;;;;;;5.88;100.00;101288.75;5204543;28;20030;-69
2022/11/27 19:05:28;;;;;;;12.52;11.52;;;;;;;5.70;100.00;101253.84;5220812;28;20090;-70
2022/11/27 19:08:03;;;;;;;11.20;10.48;;;;;;;5.81;100.00;101274.56;5204332;28;20470;-68
2022/11/27 19:10:33;;;;;;;13.88;12.32;;;;;;;5.88;100.00;101274.53;5189973;28;20017;-68
2022/11/27 19:13:03;;;;;;;10.63;9.73;;;;;;;5.87;100.00;101270.22;5199956;28;20057;-67
2022/11/27 19:15:38;;;;;;;13.10;11.93;;;;;;;5.82;100.00;101262.00;5199555;28;20481;-68
2022/11/27 19:18:09;;;;;;;14.13;12.98;;;;;;;5.84;100.00;101250.03;5200091;28;20022;-68
2022/11/27 19:20:39;;;;;;;12.77;11.65;;;;;;;5.80;100.00;101235.41;5184744;28;20018;-66
2022/11/27 19:23:09;;;;;;;15.98;13.27;;;;;;;5.85;100.00;101238.28;5199666;28;20044;-68
2022/11/27 19:25:41;;;;;;;13.90;12.55;;;;;;;5.83;100.00;101240.34;5183540;28;20032;-70
2022/11/27 19:28:12;;;;;;;13.35;12.23;;;;;;;5.86;100.00;101225.69;5192877;28;20036;-67
2022/11/27 19:30:43;;;;;;;15.07;13.75;;;;;;;5.83;100.00;101221.59;5219942;28;20017;-68
2022/11/27 19:33:14;;;;;;;12.60;11.63;;;;;;;5.84;100.00;101228.59;5220053;28;20028;-67
2022/11/27 19:35:44;;;;;;;12.85;11.80;;;;;;;5.84;100.00;101225.09;5203783;28;20025;-68
2022/11/27 19:38:15;;;;;;;12.88;11.60;;;;;;;5.80;100.00;101215.81;5203805;28;20025;-68
2022/11/27 19:40:45;;;;;;;12.93;11.77;;;;;;;5.81;100.00;101218.28;5220232;28;20021;-69
2022/11/27 19:43:16;;;;;;;11.05;10.15;;;;;;;5.81;100.00;101210.25;5205193;28;20053;-68
2022/11/27 19:45:46;;;;;;;13.25;11.98;;;;;;;5.82;100.00;101203.03;5205009;28;20048;-69
2022/11/27 19:48:17;;;;;;;13.02;12.00;;;;;;;5.76;100.00;101194.84;5220306;28;20088;-68
2022/11/27 19:50:47;;;;;;;12.57;10.93;;;;;;;5.50;100.00;101149.44;5203339;28;20017;-67
2022/11/27 19:53:18;;;;;;;11.88;10.95;;;;;;;5.81;100.00;101196.84;5219807;28;20045;-68
2022/11/27 19:55:53;;;;;;;11.43;10.68;;;;;;;5.80;100.00;101194.38;5203515;28;20033;-68
2022/11/27 19:58:23;;;;;;;13.68;11.75;;;;;;;5.81;100.00;101196.03;5203544;28;20036;-68
2022/11/27 20:00:54;;;;;;;15.05;13.50;;;;;;;5.82;100.00;101197.69;5219712;28;20030;-69
2022/11/27 20:03:25;;;;;;;10.55;9.75;;;;;;;5.80;100.00;101195.22;5220212;28;20075;-68